Time;durP1;ratioP1;P1;durP2;ratioP2;P2;SDS_P1;SDS_P2;PMS_P1;PMS_P2;Temp;Humidity;BMP_temperature;BMP_pressure;BME280_temperature;BME280_humidity;BME280_pressure;Samples;Min_cycle;Max_cycle;Signal;HPM_P1;HPM_P2
2022/03/20 00:01:07;;;;;;;2.57;1.20;;;;;;;14.79;32.15;103521.81;5029796;28;20022;-72
2022/03/20 00:03:32;;;;;;;2.10;1.10;;;;;;;15.83;30.35;103518.78;5029399;28;20504;-72
2022/03/20 00:05:58;;;;;;;5.40;1.10;;;;;;;14.97;31.54;103523.84;5029874;28;20056;-72
2022/03/20 00:08:24;;;;;;;1.73;0.93;;;;;;;15.80;30.28;103515.22;5045576;28;20061;-72
2022/03/20 00:10:52;;;;;;;2.37;1.07;;;;;;;15.81;30.78;103511.72;5029152;28;20068;-72
2022/03/20 00:13:23;;;;;;;3.80;1.23;;;;;;;15.17;31.31;103507.44;5012058;28;20025;-72
2022/03/20 00:15:51;;;;;;;3.67;1.23;;;;;;;15.20;31.79;103508.34;5030667;28;20076;-72
2022/03/20 00:18:20;;;;;;;1.43;0.80;;;;;;;14.90;32.25;103509.69;5029029;28;20051;-72
2022/03/20 00:20:49;;;;;;;5.13;2.03;;;;;;;14.64;33.02;103500.53;5028617;28;20212;-71
2022/03/20 00:23:16;;;;;;;3.23;1.37;;;;;;;14.16;33.38;103499.72;5029926;28;20056;-72
2022/03/20 00:25:44;;;;;;;6.03;1.20;;;;;;;14.67;32.82;103496.22;5030457;28;20029;-72
2022/03/20 00:28:14;;;;;;;5.20;1.30;;;;;;;15.40;31.51;103490.16;5028200;28;20513;-72
2022/03/20 00:30:40;;;;;;;3.50;1.50;;;;;;;15.28;31.47;103490.03;5030464;28;20025;-72
2022/03/20 00:33:06;;;;;;;3.53;1.20;;;;;;;16.21;30.51;103496.28;5045125;28;20029;-72
2022/03/20 00:35:32;;;;;;;3.80;1.50;;;;;;;14.24;33.67;103495.47;5028755;28;20020;-71
2022/03/20 00:37:57;;;;;;;5.47;1.40;;;;;;;15.20;32.07;103486.41;5028805;28;20080;-72
2022/03/20 00:40:23;;;;;;;4.10;1.63;;;;;;;14.58;32.93;103475.84;5028724;28;20036;-72
2022/03/20 00:42:48;;;;;;;3.27;1.33;;;;;;;14.57;33.20;103481.09;5028665;28;20021;-72
2022/03/20 00:45:14;;;;;;;3.27;1.23;;;;;;;14.71;32.69;103476.97;5030465;28;20048;-72
2022/03/20 00:47:39;;;;;;;8.43;2.00;;;;;;;16.00;30.96;103470.59;5032636;28;20033;-72
2022/03/20 00:50:05;;;;;;;4.87;2.00;;;;;;;15.54;31.60;103465.72;5031500;28;20037;-71
2022/03/20 00:52:32;;;;;;;4.43;1.70;;;;;;;14.32;33.22;103467.56;5032378;28;20025;-72
2022/03/20 00:54:58;;;;;;;2.90;1.73;;;;;;;14.43;33.37;103473.84;5032150;28;20096;-72
2022/03/20 00:57:23;;;;;;;6.13;2.30;;;;;;;14.61;33.65;103467.13;5031931;28;20490;-72
2022/03/20 00:59:49;;;;;;;2.77;1.87;;;;;;;13.90;34.82;103465.94;5032358;28;20105;-73
2022/03/20 01:02:15;;;;;;;7.50;2.30;;;;;;;15.32;32.67;103446.13;5031353;28;20025;-72
2022/03/20 01:04:40;;;;;;;4.63;2.37;;;;;;;15.03;33.19;103452.81;5032303;28;20069;-72
2022/03/20 01:07:05;;;;;;;4.00;2.17;;;;;;;14.64;33.85;103446.13;5031724;28;20029;-71
2022/03/20 01:09:31;;;;;;;3.37;2.13;;;;;;;13.86;35.01;103443.09;5031504;28;20405;-72
2022/03/20 01:11:58;;;;;;;5.17;2.20;;;;;;;14.27;33.88;103432.38;5031983;28;20096;-72
2022/03/20 01:14:25;;;;;;;5.03;2.50;;;;;;;13.61;35.54;103444.41;5033100;28;20083;-72
2022/03/20 01:16:51;;;;;;;6.50;2.50;;;;;;;14.56;34.48;103434.56;5031589;28;20117;-72
2022/03/20 01:19:17;;;;;;;4.93;2.43;;;;;;;13.96;34.85;103426.63;5031696;28;20064;-72
2022/03/20 01:21:42;;;;;;;5.87;2.70;;;;;;;13.06;36.31;103414.41;5032003;28;20049;-72
2022/03/20 01:24:08;;;;;;;5.13;2.50;;;;;;;15.61;32.59;103415.69;5030855;28;20104;-72
2022/03/20 01:26:35;;;;;;;7.47;3.20;;;;;;;14.93;33.57;103407.06;5031857;28;20029;-72
2022/03/20 01:29:00;;;;;;;5.97;3.07;;;;;;;13.97;35.37;103407.38;5033065;28;20021;-72
2022/03/20 01:31:28;;;;;;;4.80;3.00;;;;;;;14.55;33.84;103401.25;5030669;28;20029;-72
2022/03/20 01:33:54;;;;;;;8.30;3.33;;;;;;;14.44;34.11;103398.47;5031455;28;20036;-71
2022/03/20 01:36:20;;;;;;;6.37;3.60;;;;;;;14.12;35.04;103396.19;5031390;28;20029;-71
2022/03/20 01:38:46;;;;;;;9.63;3.80;;;;;;;14.20;34.81;103393.69;5030876;28;20425;-72
2022/03/20 01:41:11;;;;;;;7.97;3.70;;;;;;;14.12;34.76;103390.06;5030852;28;20120;-72
2022/03/20 01:43:38;;;;;;;9.23;4.00;;;;;;;14.05;35.03;103387.34;5032875;28;20096;-72
2022/03/20 01:46:03;;;;;;;8.13;3.77;;;;;;;13.70;35.88;103382.38;5030631;28;20101;-72
2022/03/20 01:48:29;;;;;;;10.30;4.03;;;;;;;14.26;35.25;103385.91;5031331;28;20385;-72
2022/03/20 01:50:54;;;;;;;6.43;4.10;;;;;;;14.30;35.18;103379.84;5032309;28;20021;-71
2022/03/20 01:53:20;;;;;;;6.67;3.97;;;;;;;15.10;33.25;103375.63;5030528;28;20021;-72
2022/03/20 01:55:46;;;;;;;5.70;3.60;;;;;;;14.39;34.51;103373.81;5031187;28;20064;-72
2022/03/20 01:58:14;;;;;;;8.33;4.23;;;;;;;13.20;36.79;103375.31;5030812;28;20025;-71
2022/03/20 02:00:39;;;;;;;12.97;4.43;;;;;;;12.78;37.81;103370.06;5031775;28;20446;-72
2022/03/20 02:03:05;;;;;;;10.23;4.37;;;;;;;13.67;36.00;103365.66;5030721;28;20064;-72
2022/03/20 02:05:30;;;;;;;8.93;4.50;;;;;;;13.58;36.41;103361.13;5030870;28;20052;-71
2022/03/20 02:07:56;;;;;;;7.97;4.60;;;;;;;13.74;36.11;103352.66;5030755;28;20535;-72
2022/03/20 02:10:21;;;;;;;13.87;4.97;;;;;;;13.56;36.48;103352.34;5030663;28;20120;-72
2022/03/20 02:12:47;;;;;;;9.30;5.53;;;;;;;14.69;34.34;103347.06;5030578;28;20025;-72
2022/03/20 02:15:14;;;;;;;9.73;5.90;;;;;;;14.07;34.86;103340.91;5063395;28;20053;-72
2022/03/20 02:17:43;;;;;;;14.93;5.40;;;;;;;14.02;35.93;103332.06;5030859;28;20493;-72
2022/03/20 02:20:10;;;;;;;9.73;5.57;;;;;;;13.78;36.07;103336.94;5029479;28;20102;-72
2022/03/20 02:22:41;;;;;;;11.20;6.10;;;;;;;13.61;36.27;103329.63;5030829;28;20020;-72
2022/03/20 02:25:08;;;;;;;12.00;5.57;;;;;;;13.37;36.78;103323.09;5031357;28;20481;-71
2022/03/20 02:27:38;;;;;;;13.97;5.90;;;;;;;13.28;36.53;103328.16;5030309;28;20029;-72
2022/03/20 02:30:13;;;;;;;10.20;5.13;;;;;;;12.83;37.41;103316.81;5031554;28;20032;-72
2022/03/20 02:32:44;;;;;;;12.03;5.67;;;;;;;13.27;36.64;103318.53;5030632;28;20524;-71
2022/03/20 02:35:14;;;;;;;13.67;5.90;;;;;;;12.65;37.63;103309.47;5046188;28;20106;-72
2022/03/20 02:37:45;;;;;;;12.83;6.00;;;;;;;13.97;35.19;103302.19;5031779;28;20033;-72
2022/03/20 02:40:11;;;;;;;13.90;5.70;;;;;;;12.64;37.58;103294.56;5046596;28;20033;-73
2022/03/20 02:42:38;;;;;;;10.67;5.57;;;;;;;12.54;37.78;103292.59;5029797;28;20040;-71
2022/03/20 02:45:08;;;;;;;13.67;6.20;;;;;;;12.92;37.30;103288.97;5031477;28;20130;-72
2022/03/20 02:47:45;;;;;;;12.10;6.30;;;;;;;14.50;34.92;103289.75;5029588;28;20078;-72
2022/03/20 02:50:18;;;;;;;11.17;5.80;;;;;;;13.40;36.09;103293.38;5029734;28;20618;-72
2022/03/20 02:52:46;;;;;;;;;;;;;;;13.61;36.38;103279.72;5030634;28;20025;-72
2022/03/20 02:55:17;;;;;;;11.90;5.23;;;;;;;13.71;36.00;103279.00;5030483;28;19947;-72
2022/03/20 02:57:42;;;;;;;14.00;5.53;;;;;;;13.07;36.88;103263.88;5030295;28;20033;-72
2022/03/20 03:00:08;;;;;;;8.33;5.17;;;;;;;12.68;37.96;103264.91;5029334;28;20113;-72
2022/03/20 03:02:36;;;;;;;12.70;6.93;;;;;;;13.40;37.21;103265.34;5029440;28;20489;-72
2022/03/20 03:05:02;;;;;;;11.40;5.87;;;;;;;13.69;35.79;103253.56;5030051;28;20026;-72
2022/03/20 03:07:29;;;;;;;14.13;6.60;;;;;;;12.80;38.34;103258.13;5029214;28;20022;-72
2022/03/20 03:12:39;;;;;;;17.33;6.13;;;;;;;13.07;37.44;103258.63;5031594;28;20040;-71
2022/03/20 03:15:20;;;;;;;9.87;5.03;;;;;;;12.63;38.40;103265.66;5029832;28;20025;-71
2022/03/20 03:17:49;;;;;;;9.17;5.17;;;;;;;12.82;38.52;103261.66;5029221;28;20096;-71
2022/03/20 03:20:17;;;;;;;9.87;5.87;;;;;;;12.19;39.04;103266.50;5029080;28;20041;-71
2022/03/20 03:22:42;;;;;;;12.33;5.27;;;;;;;13.74;36.51;103258.03;5029523;28;20063;-70
2022/03/20 03:25:08;;;;;;;12.90;5.70;;;;;;;13.43;37.40;103263.66;5029117;28;20029;-72
2022/03/20 03:27:34;;;;;;;11.90;5.93;;;;;;;13.12;37.88;103258.72;5030799;28;20044;-72
2022/03/20 03:29:59;;;;;;;12.30;5.57;;;;;;;13.01;38.36;103261.16;5028949;28;20444;-72
2022/03/20 03:32:25;;;;;;;14.40;5.00;;;;;;;13.16;37.51;103257.03;5029335;28;20026;-71
2022/03/20 03:37:34;;;;;;;10.33;5.27;;;;;;;13.07;38.40;103247.25;5030575;28;20036;-72
2022/03/20 03:40:02;;;;;;;9.10;5.17;;;;;;;12.52;39.02;103247.94;5030767;28;20026;-72
2022/03/20 03:42:28;;;;;;;11.77;5.20;;;;;;;12.10;40.05;103242.69;5029298;28;20025;-71
2022/03/20 03:44:54;;;;;;;13.87;5.53;;;;;;;12.82;39.47;103235.44;5029051;28;20025;-72
2022/03/20 03:47:19;;;;;;;13.63;5.77;;;;;;;13.61;37.22;103227.16;5029567;28;20431;-71
2022/03/20 03:49:45;;;;;;;11.43;5.73;;;;;;;13.20;37.07;103219.44;5029599;28;20029;-72
2022/03/20 03:52:11;;;;;;;17.73;5.70;;;;;;;13.47;37.55;103221.69;5028483;28;20021;-72
2022/03/20 03:54:36;;;;;;;10.43;4.83;;;;;;;13.46;37.60;103209.41;5029663;28;20022;-72
2022/03/20 03:57:02;;;;;;;12.37;5.87;;;;;;;13.15;37.86;103218.50;5029336;28;20071;-72
2022/03/20 03:59:28;;;;;;;13.57;6.33;;;;;;;13.54;36.93;103220.03;5029778;28;20404;-72
2022/03/20 04:01:55;;;;;;;11.40;5.37;;;;;;;13.52;37.38;103209.50;5028986;28;20506;-73
2022/03/20 04:04:20;;;;;;;10.83;5.33;;;;;;;12.93;38.54;103197.13;5029165;28;20025;-72
2022/03/20 04:06:45;;;;;;;14.70;5.33;;;;;;;12.96;38.39;103197.19;5028907;28;20500;-72
2022/03/20 04:09:11;;;;;;;12.83;6.27;;;;;;;12.76;38.40;103191.56;5030290;28;20418;-72
2022/03/20 04:11:38;;;;;;;13.13;6.07;;;;;;;12.41;39.58;103185.66;5029259;28;20132;-73
2022/03/20 04:14:03;;;;;;;12.63;5.23;;;;;;;12.80;38.32;103184.63;5030062;28;20397;-72
2022/03/20 04:16:28;;;;;;;12.07;5.20;;;;;;;13.16;37.50;103173.00;5028903;28;20022;-73
2022/03/20 04:18:54;;;;;;;12.47;6.27;;;;;;;13.18;37.59;103173.91;5029068;28;20053;-72
2022/03/20 04:21:19;;;;;;;10.10;5.00;;;;;;;12.55;38.54;103171.06;5031763;28;20042;-72
2022/03/20 04:23:49;;;;;;;16.23;7.03;;;;;;;12.83;38.09;103174.19;5033197;28;20376;-72
2022/03/20 04:26:22;;;;;;;13.07;5.67;;;;;;;12.97;38.00;103170.06;5031846;28;20108;-72
2022/03/20 04:28:48;;;;;;;11.43;5.47;;;;;;;12.96;38.18;103164.81;5065970;28;20032;-73
2022/03/20 04:31:15;;;;;;;10.93;6.50;;;;;;;12.92;38.03;103174.34;5032468;28;20068;-73
2022/03/20 04:33:49;;;;;;;15.97;5.37;;;;;;;12.97;37.78;103161.28;5032389;28;20021;-72
2022/03/20 04:36:15;;;;;;;14.50;6.30;;;;;;;12.95;37.54;103163.91;5032539;28;20029;-72
2022/03/20 04:38:41;;;;;;;15.17;6.00;;;;;;;12.91;37.91;103156.81;5032627;28;20412;-72
2022/03/20 04:41:07;;;;;;;13.67;6.27;;;;;;;11.78;39.48;103156.34;5032916;28;20026;-72
2022/03/20 04:43:32;;;;;;;11.87;6.03;;;;;;;12.32;38.75;103155.78;5032586;28;20120;-72
2022/03/20 04:45:59;;;;;;;14.00;5.80;;;;;;;11.90;39.05;103151.38;5033817;28;20037;-72
2022/03/20 04:59:20;;;;;;;16.00;6.20;;;;;;;12.23;38.17;103142.47;5033726;28;20056;-72
2022/03/20 05:01:46;;;;;;;13.30;6.50;;;;;;;12.94;36.99;103138.53;5031737;28;20029;-72
2022/03/20 05:04:13;;;;;;;18.57;6.93;;;;;;;12.50;37.10;103138.59;5031892;28;20052;-72
2022/03/20 05:06:39;;;;;;;17.27;6.67;;;;;;;12.93;37.12;103121.00;5032394;28;20038;-73
2022/03/20 05:14:32;;;;;;;17.23;6.50;;;;;;;11.79;38.91;103116.22;5033829;28;20084;-73
2022/03/20 05:16:57;;;;;;;10.90;6.13;;;;;;;12.72;37.21;103104.03;5014848;28;20429;-72
2022/03/20 05:19:23;;;;;;;16.10;6.83;;;;;;;12.15;37.34;103094.25;5033457;28;20037;-72
2022/03/20 05:21:48;;;;;;;11.37;5.60;;;;;;;12.35;37.12;103094.59;5031522;28;20045;-71
2022/03/20 05:24:14;;;;;;;19.10;7.43;;;;;;;12.66;37.39;103088.16;5031030;28;20025;-72
2022/03/20 05:26:40;;;;;;;16.97;6.67;;;;;;;13.41;35.54;103087.63;5031999;28;20033;-72
2022/03/20 05:29:05;;;;;;;13.77;6.53;;;;;;;11.40;39.30;103083.91;5031306;28;20022;-73
2022/03/20 05:31:31;;;;;;;8.97;5.30;;;;;;;11.02;39.73;103076.94;5030746;28;20021;-72
2022/03/20 05:33:57;;;;;;;16.57;7.13;;;;;;;12.54;37.73;103064.34;5031619;28;20040;-72
2022/03/20 05:36:22;;;;;;;11.53;6.60;;;;;;;12.35;37.20;103065.75;5032408;28;20037;-72
2022/03/20 05:38:48;;;;;;;15.30;6.70;;;;;;;12.45;37.31;103066.84;5031667;28;20029;-73
2022/03/20 05:43:57;;;;;;;14.13;6.93;;;;;;;11.95;37.90;103079.00;5031781;28;20041;-72
2022/03/20 05:46:22;;;;;;;11.87;6.43;;;;;;;12.35;37.24;103066.66;5031288;28;20029;-72
2022/03/20 05:48:48;;;;;;;14.43;8.20;;;;;;;12.45;37.23;103064.22;5031640;28;20028;-72
2022/03/20 05:51:16;;;;;;;19.97;8.27;;;;;;;12.57;36.84;103067.03;5030747;28;20087;-71
2022/03/20 05:53:41;;;;;;;14.63;7.47;;;;;;;12.33;37.84;103072.72;5031515;28;20036;-73
2022/03/20 05:58:51;;;;;;;16.77;6.53;;;;;;;12.31;37.77;103049.09;5032093;28;20040;-72
2022/03/20 06:01:16;;;;;;;16.10;6.73;;;;;;;13.11;36.08;103048.66;5030735;28;20025;-71
2022/03/20 06:03:42;;;;;;;13.50;7.23;;;;;;;12.68;36.97;103044.50;5032477;28;20029;-72
2022/03/20 06:06:08;;;;;;;15.63;7.07;;;;;;;12.62;36.73;103048.75;5030043;28;20120;-72
2022/03/20 06:08:35;;;;;;;12.93;7.10;;;;;;;13.34;35.29;103041.97;5031109;28;20117;-72
2022/03/20 06:11:00;;;;;;;13.07;5.67;;;;;;;12.54;36.40;103045.97;5031217;28;20014;-72
2022/03/20 06:13:27;;;;;;;15.23;6.53;;;;;;;13.21;35.87;103045.28;5030051;28;20021;-73
2022/03/20 06:15:55;;;;;;;16.10;5.57;;;;;;;11.61;37.57;103033.75;5032210;28;20088;-72
2022/03/20 06:18:20;;;;;;;17.13;8.50;;;;;;;12.46;36.25;103037.09;5030713;28;20047;-72
2022/03/20 06:20:45;;;;;;;16.30;6.50;;;;;;;13.05;35.32;103039.81;5030347;28;20489;-72
2022/03/20 06:23:11;;;;;;;19.07;7.43;;;;;;;13.99;34.26;103028.75;5031438;28;20080;-72
2022/03/20 06:25:37;;;;;;;15.57;7.47;;;;;;;13.81;33.96;103039.97;5031422;28;20079;-72
2022/03/20 06:28:03;;;;;;;15.67;6.73;;;;;;;13.31;35.34;103052.44;5030471;28;20025;-71
2022/03/20 06:30:33;;;;;;;13.73;7.03;;;;;;;13.78;35.04;103043.44;5030488;28;20068;-72
2022/03/20 06:32:58;;;;;;;17.47;7.37;;;;;;;13.73;34.65;103040.72;5029589;28;20424;-72
2022/03/20 06:35:24;;;;;;;15.47;7.77;;;;;;;13.83;34.48;103043.47;5030456;28;20260;-72
2022/03/20 06:37:50;;;;;;;12.80;6.63;;;;;;;14.00;33.91;103044.56;5030308;28;20453;-72
2022/03/20 06:40:16;;;;;;;14.57;7.77;;;;;;;14.53;33.38;103031.91;5029400;28;20021;-72
2022/03/20 06:42:43;;;;;;;20.53;8.73;;;;;;;13.89;33.64;103035.69;5029488;28;20520;-72
2022/03/20 06:45:11;;;;;;;16.33;6.63;;;;;;;13.29;34.84;103030.50;5031296;28;20025;-71
2022/03/20 06:47:37;;;;;;;15.40;6.20;;;;;;;12.47;35.90;103023.13;5031273;28;20543;-72
2022/03/20 06:50:07;;;;;;;20.77;7.70;;;;;;;13.36;34.49;103021.88;5029934;28;20103;-72
2022/03/20 06:52:33;;;;;;;20.20;8.47;;;;;;;13.17;34.47;103022.47;5030300;28;20522;-72
2022/03/20 06:55:01;;;;;;;12.87;6.47;;;;;;;13.37;33.95;103021.03;5030729;28;20105;-71
2022/03/20 06:57:27;;;;;;;22.60;8.53;;;;;;;13.25;34.11;103026.06;5029844;28;20044;-72
2022/03/20 06:59:55;;;;;;;15.57;7.33;;;;;;;12.54;35.69;103009.25;5030835;28;20025;-71
2022/03/20 07:02:20;;;;;;;14.53;7.23;;;;;;;14.66;32.07;103002.22;5029149;28;20108;-72
2022/03/20 07:04:50;;;;;;;17.90;8.73;;;;;;;13.57;33.08;103005.53;5029855;28;20460;-72
2022/03/20 07:07:19;;;;;;;21.17;8.53;;;;;;;13.96;32.89;103010.31;5029465;28;20022;-72
2022/03/20 07:09:45;;;;;;;17.10;7.57;;;;;;;13.51;32.56;103007.19;5030581;28;20021;-72
2022/03/20 07:12:11;;;;;;;17.60;8.47;;;;;;;12.39;35.06;103009.88;5029365;28;20032;-72
2022/03/20 07:14:38;;;;;;;15.17;7.77;;;;;;;13.36;33.60;103010.50;5029986;28;20025;-72
2022/03/20 07:17:09;;;;;;;16.47;8.10;;;;;;;13.39;33.83;103003.56;5029170;28;20220;-72
2022/03/20 07:19:39;;;;;;;18.33;8.20;;;;;;;13.31;33.89;102994.66;5029825;28;20033;-72
2022/03/20 07:22:06;;;;;;;26.00;10.77;;;;;;;13.84;33.41;102995.31;5029853;28;20129;-72
2022/03/20 07:24:36;;;;;;;16.23;7.90;;;;;;;14.01;32.96;102988.47;5046183;28;20037;-72
2022/03/20 07:29:45;;;;;;;16.63;8.70;;;;;;;13.65;33.47;102989.81;5031027;28;20100;-71
2022/03/20 07:32:11;;;;;;;14.93;7.43;;;;;;;12.84;34.53;102981.75;5029401;28;20177;-72
2022/03/20 07:34:39;;;;;;;14.93;8.17;;;;;;;13.47;33.24;102973.84;5031378;28;20026;-71
2022/03/20 07:37:06;;;;;;;18.30;8.70;;;;;;;14.70;31.67;102969.78;5029031;28;20477;-72
2022/03/20 07:39:32;;;;;;;20.73;8.13;;;;;;;13.66;32.82;102972.34;5062754;28;20104;-72
2022/03/20 07:41:58;;;;;;;18.13;8.40;;;;;;;13.12;33.21;102971.63;5029130;28;20017;-72
2022/03/20 07:44:25;;;;;;;21.13;8.87;;;;;;;14.32;31.65;102958.94;5028756;28;20083;-72
2022/03/20 07:46:52;;;;;;;17.33;8.67;;;;;;;14.86;31.26;102959.34;5030943;28;20060;-72
2022/03/20 07:49:21;;;;;;;15.00;7.90;;;;;;;14.83;31.00;102946.16;5029515;28;20108;-72
2022/03/20 07:51:47;;;;;;;18.43;8.27;;;;;;;14.41;31.08;102949.38;5029233;28;20013;-72
2022/03/20 07:54:15;;;;;;;14.43;7.83;;;;;;;13.72;31.74;102954.88;5030948;28;20440;-71
2022/03/20 07:56:41;;;;;;;17.80;8.53;;;;;;;14.02;31.65;102937.63;5034840;28;20039;-71
2022/03/20 07:59:09;;;;;;;15.47;7.13;;;;;;;14.67;30.79;102932.91;5033616;28;20465;-72
2022/03/20 08:01:35;;;;;;;21.77;9.40;;;;;;;15.35;29.59;102933.22;5033444;28;20026;-72
2022/03/20 08:04:02;;;;;;;17.53;9.17;;;;;;;16.20;28.89;102935.16;5033100;28;20389;-72
2022/03/20 08:06:28;;;;;;;16.63;7.67;;;;;;;15.47;28.45;102932.41;5033441;28;20039;-72
2022/03/20 08:08:53;;;;;;;19.87;9.27;;;;;;;13.73;31.05;102925.09;5033081;28;20389;-72
2022/03/20 08:11:19;;;;;;;14.03;7.07;;;;;;;14.45;30.67;102920.44;5032547;28;20052;-72
2022/03/20 08:13:45;;;;;;;20.67;9.23;;;;;;;14.86;30.46;102925.97;5033205;28;20108;-72
2022/03/20 08:16:15;;;;;;;19.80;8.20;;;;;;;13.73;31.48;102935.59;5032792;28;20742;-72
2022/03/20 08:18:45;;;;;;;14.23;6.93;;;;;;;14.48;30.50;102920.44;5032919;28;20021;-72
2022/03/20 08:21:13;;;;;;;15.63;7.83;;;;;;;14.58;30.31;102922.28;5032258;28;20057;-71
2022/03/20 08:23:40;;;;;;;17.90;8.80;;;;;;;14.40;30.83;102913.41;5034360;28;20033;-72
2022/03/20 08:26:08;;;;;;;20.60;9.60;;;;;;;14.26;31.05;102917.69;5048461;28;20041;-73
2022/03/20 08:28:37;;;;;;;15.70;8.17;;;;;;;13.65;32.00;102918.88;5032853;28;20116;-72
2022/03/20 08:31:03;;;;;;;18.87;8.10;;;;;;;13.95;31.31;102909.53;5034086;28;20025;-72
2022/03/20 08:33:30;;;;;;;21.17;8.47;;;;;;;14.63;30.30;102903.91;5032272;28;20013;-72
2022/03/20 08:35:56;;;;;;;19.33;8.87;;;;;;;14.02;31.36;102915.72;5032533;28;20370;-72
2022/03/20 08:38:21;;;;;;;21.17;9.40;;;;;;;15.37;29.69;102923.59;5032361;28;20032;-72
2022/03/20 08:40:47;;;;;;;17.23;8.40;;;;;;;15.07;29.77;102917.31;5032220;28;20048;-72
2022/03/20 08:43:15;;;;;;;20.40;8.30;;;;;;;13.60;31.61;102903.94;5032318;28;20083;-72
2022/03/20 08:45:41;;;;;;;22.50;9.07;;;;;;;14.50;30.40;102893.28;5032649;28;20041;-71
2022/03/20 08:48:06;;;;;;;16.03;8.43;;;;;;;14.01;30.39;102880.69;5032982;28;20018;-72
2022/03/20 08:50:32;;;;;;;18.43;8.43;;;;;;;13.80;30.58;102893.63;5032833;28;20033;-72
2022/03/20 08:52:57;;;;;;;18.97;8.97;;;;;;;14.66;29.85;102894.31;5032519;28;20473;-72
2022/03/20 08:55:23;;;;;;;20.50;8.17;;;;;;;14.54;29.97;102888.94;5031713;28;20032;-71
2022/03/20 08:57:51;;;;;;;17.93;9.73;;;;;;;15.59;28.98;102887.63;5033899;28;20450;-72
2022/03/20 09:00:18;;;;;;;20.93;8.80;;;;;;;15.31;28.78;102878.75;5031846;28;20034;-72
2022/03/20 09:02:48;;;;;;;22.13;8.87;;;;;;;15.44;28.85;102874.38;5032284;28;20025;-72
2022/03/20 09:05:15;;;;;;;16.87;8.20;;;;;;;15.46;28.99;102877.06;5014489;28;20040;-72
2022/03/20 09:07:42;;;;;;;19.93;10.10;;;;;;;16.25;28.25;102880.59;5031612;28;20033;-71
2022/03/20 09:10:09;;;;;;;21.63;9.73;;;;;;;16.66;26.93;102877.00;5047788;28;20412;-72
2022/03/20 09:12:35;;;;;;;17.23;8.73;;;;;;;15.97;27.71;102883.28;5033460;28;20021;-72
2022/03/20 09:15:02;;;;;;;22.60;9.73;;;;;;;16.48;27.17;102877.06;5031356;28;20076;-72
2022/03/20 09:20:12;;;;;;;21.37;10.27;;;;;;;15.72;27.91;102874.44;5031883;28;20515;-73
2022/03/20 09:22:37;;;;;;;29.23;10.77;;;;;;;14.89;29.31;102883.00;5032767;28;20485;-72
2022/03/20 09:25:04;;;;;;;18.03;9.30;;;;;;;15.32;28.99;102870.00;5031527;28;20060;-72
2022/03/20 09:27:29;;;;;;;19.67;9.63;;;;;;;16.43;26.95;102870.03;5032014;28;20121;-72
2022/03/20 09:29:55;;;;;;;19.87;10.40;;;;;;;16.98;25.85;102878.69;5031164;28;20068;-72
2022/03/20 09:32:20;;;;;;;19.97;10.10;;;;;;;16.53;26.70;102872.66;5031560;28;20017;-72
2022/03/20 09:34:46;;;;;;;19.83;9.83;;;;;;;17.94;24.83;102867.50;5031562;28;20473;-72
2022/03/20 09:37:11;;;;;;;23.63;11.00;;;;;;;16.42;26.27;102878.84;5030487;28;20022;-72
2022/03/20 09:39:37;;;;;;;20.30;11.17;;;;;;;17.73;24.76;102866.75;5031593;28;20111;-73
2022/03/20 09:42:03;;;;;;;22.17;11.03;;;;;;;16.06;26.98;102875.38;5031321;28;20159;-72
2022/03/20 09:44:31;;;;;;;22.57;10.70;;;;;;;17.38;25.27;102877.59;5030808;28;20022;-72
2022/03/20 09:46:57;;;;;;;21.47;11.07;;;;;;;15.50;27.48;102884.97;5031409;28;20044;-72
2022/03/20 09:49:25;;;;;;;18.53;9.87;;;;;;;17.07;25.85;102894.47;5031157;28;20014;-72
2022/03/20 09:51:51;;;;;;;19.10;9.87;;;;;;;15.91;27.32;102885.94;5032073;28;20017;-72
2022/03/20 09:54:16;;;;;;;21.33;10.80;;;;;;;18.02;24.81;102883.31;5030978;28;20022;-72
2022/03/20 09:56:42;;;;;;;20.23;9.87;;;;;;;16.87;26.61;102891.00;5030810;28;20027;-72
2022/03/20 09:59:09;;;;;;;24.90;11.80;;;;;;;17.24;26.38;102901.44;5014368;28;20156;-72
2022/03/20 10:01:35;;;;;;;21.80;10.27;;;;;;;17.01;26.26;102889.25;5032482;28;20033;-72
2022/03/20 10:04:09;;;;;;;24.63;11.50;;;;;;;16.92;25.93;102884.00;5030545;28;20025;-72
2022/03/20 10:06:39;;;;;;;20.33;10.57;;;;;;;16.62;26.53;102880.53;5031056;28;20021;-72
2022/03/20 10:09:10;;;;;;;24.40;11.90;;;;;;;17.51;25.19;102870.47;5030685;28;20029;-72
2022/03/20 10:11:39;;;;;;;26.50;11.50;;;;;;;17.81;24.82;102867.59;5030572;28;20524;-72
2022/03/20 10:14:16;;;;;;;22.10;11.73;;;;;;;18.63;24.22;102853.56;5030467;28;20033;-72
2022/03/20 10:16:44;;;;;;;22.20;10.50;;;;;;;18.07;23.98;102848.00;5030857;28;20052;-71
2022/03/20 10:19:24;;;;;;;22.70;10.97;;;;;;;17.28;25.12;102840.66;5029919;28;20111;-72
2022/03/20 10:22:02;;;;;;;23.70;11.37;;;;;;;17.76;24.51;102837.66;5031938;28;20045;-72
2022/03/20 10:24:29;;;;;;;22.33;11.93;;;;;;;16.44;26.71;102845.41;5061979;28;20030;-72
2022/03/20 10:27:01;;;;;;;23.83;12.23;;;;;;;16.81;27.23;102840.88;5031103;28;20028;-72
2022/03/20 10:29:31;;;;;;;20.93;11.00;;;;;;;17.20;25.74;102831.00;5063768;28;20390;-72
2022/03/20 10:32:01;;;;;;;21.73;12.07;;;;;;;17.21;25.56;102824.84;5029595;28;20021;-72
2022/03/20 10:34:27;;;;;;;27.63;12.73;;;;;;;18.06;24.94;102806.53;5063246;28;20030;-72
2022/03/20 10:36:53;;;;;;;25.20;11.73;;;;;;;18.36;24.14;102785.94;5031693;28;20567;-71
2022/03/20 10:39:21;;;;;;;25.50;12.70;;;;;;;19.56;23.91;102787.81;5046224;28;20064;-72
2022/03/20 10:41:53;;;;;;;29.93;13.70;;;;;;;19.21;23.75;102803.38;5031691;28;20033;-72
2022/03/20 10:44:26;;;;;;;23.83;12.30;;;;;;;19.79;23.35;102806.84;5030195;28;20075;-72
2022/03/20 10:46:58;;;;;;;26.50;13.37;;;;;;;18.35;25.15;102800.06;5029450;28;20022;-72
2022/03/20 10:49:25;;;;;;;25.42;13.02;;;;;;;17.81;24.83;102804.09;5063625;28;20467;-72
2022/03/20 10:52:11;;;;;;;26.50;12.47;;;;;;;17.96;25.53;102807.53;5063650;28;20116;-72
2022/03/20 10:54:42;;;;;;;25.57;13.10;;;;;;;16.34;27.72;102814.63;5029710;28;20036;-72
2022/03/20 10:57:09;;;;;;;26.87;14.13;;;;;;;16.26;27.78;102808.50;5062761;28;20036;-71
2022/03/20 10:59:36;;;;;;;28.67;13.90;;;;;;;16.30;28.13;102815.53;5031763;28;20071;-72
2022/03/20 11:02:08;;;;;;;29.67;15.13;;;;;;;16.89;27.62;102802.13;5030695;28;20072;-72
2022/03/20 11:04:34;;;;;;;28.17;14.23;;;;;;;16.54;27.07;102818.97;5030078;28;20025;-73
2022/03/20 11:07:03;;;;;;;27.43;12.97;;;;;;;16.67;27.14;102818.03;5046024;28;20397;-72
2022/03/20 11:09:28;;;;;;;26.30;13.60;;;;;;;16.16;27.73;102828.75;5063036;28;20084;-72
2022/03/20 11:11:57;;;;;;;30.33;14.60;;;;;;;17.23;26.35;102816.03;5029775;28;20404;-72
2022/03/20 11:14:25;;;;;;;25.90;12.53;;;;;;;16.41;27.76;102813.72;5029237;28;20025;-72
2022/03/20 11:17:01;;;;;;;26.23;12.90;;;;;;;17.78;25.64;102806.78;5029809;28;20457;-72
2022/03/20 11:19:29;;;;;;;28.93;11.57;;;;;;;16.45;26.56;102820.75;5029590;28;20033;-72
2022/03/20 11:22:03;;;;;;;25.00;12.33;;;;;;;18.18;24.20;102812.63;5028915;28;20056;-72
2022/03/20 11:24:29;;;;;;;25.17;12.40;;;;;;;17.66;25.23;102806.88;5030953;28;20033;-72
2022/03/20 11:27:00;;;;;;;22.73;11.80;;;;;;;17.94;24.19;102798.72;5029349;28;20436;-72
2022/03/20 11:29:28;;;;;;;25.30;12.07;;;;;;;17.56;24.83;102808.72;5028770;28;20044;-72
2022/03/20 11:31:54;;;;;;;23.70;10.93;;;;;;;16.14;27.13;102813.78;5062850;28;20025;-72
2022/03/20 11:34:22;;;;;;;28.83;13.40;;;;;;;17.39;25.88;102806.22;5062515;28;20037;-72
2022/03/20 11:37:08;;;;;;;23.13;12.33;;;;;;;18.09;25.22;102798.59;5062197;28;20029;-72
2022/03/20 11:39:35;;;;;;;27.97;12.63;;;;;;;19.46;24.48;102795.03;5029852;28;20477;-73
2022/03/20 11:42:20;;;;;;;26.70;13.47;;;;;;;18.48;26.14;102806.97;5030558;28;20027;-72
2022/03/20 11:45:00;;;;;;;27.40;13.90;;;;;;;18.25;26.84;102819.59;5029561;28;20087;-71
2022/03/20 11:47:30;;;;;;;27.13;12.93;;;;;;;17.03;28.74;102826.69;5030645;28;20083;-71
2022/03/20 11:50:08;;;;;;;27.30;13.30;;;;;;;17.38;29.06;102807.13;5028942;28;20037;-72